sensor_id;sensor_type;location;lat;lon;timestamp;temperature;humidity
71155;DHT22;59375;53.216;5.728;2022-08-18T00:02:19;18.20;99.90
71155;DHT22;59375;53.216;5.728;2022-08-18T00:04:45;18.20;99.90
71155;DHT22;59375;53.216;5.728;2022-08-18T00:07:17;18.20;99.90
71155;DHT22;59375;53.216;5.728;2022-08-18T00:09:43;18.20;99.90
71155;DHT22;59375;53.216;5.728;2022-08-18T00:12:20;18.20;99.90
71155;DHT22;59375;53.216;5.728;2022-08-18T00:14:47;18.20;99.90
71155;DHT22;59375;53.216;5.728;2022-08-18T00:17:13;18.20;99.90
71155;DHT22;59375;53.216;5.728;2022-08-18T00:19:39;18.20;99.90
71155;DHT22;59375;53.216;5.728;2022-08-18T00:22:05;18.20;99.90
71155;DHT22;59375;53.216;5.728;2022-08-18T00:24:31;18.20;99.90
71155;DHT22;59375;53.216;5.728;2022-08-18T00:26:57;18.20;99.90
71155;DHT22;59375;53.216;5.728;2022-08-18T00:29:23;18.20;99.90
71155;DHT22;59375;53.216;5.728;2022-08-18T00:31:49;18.20;99.90
71155;DHT22;59375;53.216;5.728;2022-08-18T00:34:15;18.20;99.90
71155;DHT22;59375;53.216;5.728;2022-08-18T00:36:41;18.10;99.90
71155;DHT22;59375;53.216;5.728;2022-08-18T00:39:06;18.10;99.90
71155;DHT22;59375;53.216;5.728;2022-08-18T00:41:32;18.20;99.90
71155;DHT22;59375;53.216;5.728;2022-08-18T00:43:58;18.10;99.90
71155;DHT22;59375;53.216;5.728;2022-08-18T00:46:29;18.10;99.90
71155;DHT22;59375;53.216;5.728;2022-08-18T00:48:56;18.10;99.90
71155;DHT22;59375;53.216;5.728;2022-08-18T00:51:45;18.10;99.90
71155;DHT22;59375;53.216;5.728;2022-08-18T00:54:23;18.10;99.90
71155;DHT22;59375;53.216;5.728;2022-08-18T00:56:52;18.10;99.90
71155;DHT22;59375;53.216;5.728;2022-08-18T00:59:25;18.10;99.90
71155;DHT22;59375;53.216;5.728;2022-08-18T01:01:54;18.20;99.90
71155;DHT22;59375;53.216;5.728;2022-08-18T01:07:32;18.10;99.90
71155;DHT22;59375;53.216;5.728;2022-08-18T01:10:00;18.10;99.90
71155;DHT22;59375;53.216;5.728;2022-08-18T01:12:29;18.20;99.90
71155;DHT22;59375;53.216;5.728;2022-08-18T01:14:55;18.10;99.90
71155;DHT22;59375;53.216;5.728;2022-08-18T01:17:22;18.10;99.90
71155;DHT22;59375;53.216;5.728;2022-08-18T01:23:46;18.10;99.90
71155;DHT22;59375;53.216;5.728;2022-08-18T01:26:14;18.10;99.90
71155;DHT22;59375;53.216;5.728;2022-08-18T01:28:42;18.10;99.90
71155;DHT22;59375;53.216;5.728;2022-08-18T01:31:10;18.10;99.90
71155;DHT22;59375;53.216;5.728;2022-08-18T01:33:40;18.20;99.90
71155;DHT22;59375;53.216;5.728;2022-08-18T01:36:11;18.20;99.90
71155;DHT22;59375;53.216;5.728;2022-08-18T01:38:39;18.20;99.90
71155;DHT22;59375;53.216;5.728;2022-08-18T01:41:05;18.20;99.90
71155;DHT22;59375;53.216;5.728;2022-08-18T01:43:32;18.20;99.90
71155;DHT22;59375;53.216;5.728;2022-08-18T01:45:59;18.20;99.90
71155;DHT22;59375;53.216;5.728;2022-08-18T01:48:26;18.20;99.90
71155;DHT22;59375;53.216;5.728;2022-08-18T01:50:52;18.20;99.90
71155;DHT22;59375;53.216;5.728;2022-08-18T01:53:21;18.20;99.90
71155;DHT22;59375;53.216;5.728;2022-08-18T01:55:47;18.20;99.90
71155;DHT22;59375;53.216;5.728;2022-08-18T01:58:12;18.20;99.90
71155;DHT22;59375;53.216;5.728;2022-08-18T02:00:38;18.20;99.90
71155;DHT22;59375;53.216;5.728;2022-08-18T02:03:10;18.20;99.90
71155;DHT22;59375;53.216;5.728;2022-08-18T02:05:48;18.20;99.90
71155;DHT22;59375;53.216;5.728;2022-08-18T02:08:14;18.30;99.90
71155;DHT22;59375;53.216;5.728;2022-08-18T02:10:40;18.30;99.90
71155;DHT22;59375;53.216;5.728;2022-08-18T02:13:06;18.30;99.90
71155;DHT22;59375;53.216;5.728;2022-08-18T02:15:32;18.30;99.90
71155;DHT22;59375;53.216;5.728;2022-08-18T02:17:58;18.30;99.90
71155;DHT22;59375;53.216;5.728;2022-08-18T02:20:24;18.30;99.90
71155;DHT22;59375;53.216;5.728;2022-08-18T02:22:49;18.30;99.90
71155;DHT22;59375;53.216;5.728;2022-08-18T02:25:16;18.30;99.90
71155;DHT22;59375;53.216;5.728;2022-08-18T02:27:42;18.30;99.90
71155;DHT22;59375;53.216;5.728;2022-08-18T02:30:10;18.30;99.90
71155;DHT22;59375;53.216;5.728;2022-08-18T02:32:36;18.30;99.90
71155;DHT22;59375;53.216;5.728;2022-08-18T02:35:06;18.30;99.90
71155;DHT22;59375;53.216;5.728;2022-08-18T02:37:32;18.30;99.90
71155;DHT22;59375;53.216;5.728;2022-08-18T02:39:58;18.20;99.90
71155;DHT22;59375;53.216;5.728;2022-08-18T02:42:24;18.20;99.90
71155;DHT22;59375;53.216;5.728;2022-08-18T02:44:50;18.20;99.90
71155;DHT22;59375;53.216;5.728;2022-08-18T02:47:19;18.10;99.90
71155;DHT22;59375;53.216;5.728;2022-08-18T02:49:45;18.20;99.90
71155;DHT22;59375;53.216;5.728;2022-08-18T02:52:10;18.20;99.90
71155;DHT22;59375;53.216;5.728;2022-08-18T02:54:36;18.20;99.90
71155;DHT22;59375;53.216;5.728;2022-08-18T02:57:06;18.20;99.90
71155;DHT22;59375;53.216;5.728;2022-08-18T02:59:32;18.20;99.90
71155;DHT22;59375;53.216;5.728;2022-08-18T03:01:58;18.20;99.90
71155;DHT22;59375;53.216;5.728;2022-08-18T03:04:27;18.20;99.90
71155;DHT22;59375;53.216;5.728;2022-08-18T03:06:54;18.30;99.90
71155;DHT22;59375;53.216;5.728;2022-08-18T03:09:20;18.30;99.90
71155;DHT22;59375;53.216;5.728;2022-08-18T03:11:46;18.30;99.90
71155;DHT22;59375;53.216;5.728;2022-08-18T03:14:13;18.30;99.90
71155;DHT22;59375;53.216;5.728;2022-08-18T03:16:42;18.40;99.90
71155;DHT22;59375;53.216;5.728;2022-08-18T03:19:08;18.30;99.90
71155;DHT22;59375;53.216;5.728;2022-08-18T03:21:36;18.40;99.90
71155;DHT22;59375;53.216;5.728;2022-08-18T03:24:03;18.40;99.90
71155;DHT22;59375;53.216;5.728;2022-08-18T03:26:30;18.40;99.90
71155;DHT22;59375;53.216;5.728;2022-08-18T03:28:57;18.40;99.90
71155;DHT22;59375;53.216;5.728;2022-08-18T03:31:26;18.50;99.90
71155;DHT22;59375;53.216;5.728;2022-08-18T03:33:53;18.50;99.90
71155;DHT22;59375;53.216;5.728;2022-08-18T03:36:21;18.50;99.90
71155;DHT22;59375;53.216;5.728;2022-08-18T03:38:47;18.50;99.90
71155;DHT22;59375;53.216;5.728;2022-08-18T03:41:15;18.50;99.90
71155;DHT22;59375;53.216;5.728;2022-08-18T03:43:41;18.60;99.90
71155;DHT22;59375;53.216;5.728;2022-08-18T03:46:08;18.60;99.90
71155;DHT22;59375;53.216;5.728;2022-08-18T03:48:36;18.60;99.90
71155;DHT22;59375;53.216;5.728;2022-08-18T03:51:06;18.60;99.90
71155;DHT22;59375;53.216;5.728;2022-08-18T03:53:33;18.60;99.90
71155;DHT22;59375;53.216;5.728;2022-08-18T03:56:00;18.60;99.90
71155;DHT22;59375;53.216;5.728;2022-08-18T03:58:26;18.60;99.90
71155;DHT22;59375;53.216;5.728;2022-08-18T04:00:52;18.60;99.90
71155;DHT22;59375;53.216;5.728;2022-08-18T04:03:18;18.60;99.90
71155;DHT22;59375;53.216;5.728;2022-08-18T04:05:44;18.60;99.90
71155;DHT22;59375;53.216;5.728;2022-08-18T04:08:09;18.60;99.90
71155;DHT22;59375;53.216;5.728;2022-08-18T04:10:35;18.60;99.90
71155;DHT22;59375;53.216;5.728;2022-08-18T04:13:01;18.60;99.90
71155;DHT22;59375;53.216;5.728;2022-08-18T04:15:30;18.60;99.90
71155;DHT22;59375;53.216;5.728;2022-08-18T04:17:59;18.60;99.90
71155;DHT22;59375;53.216;5.728;2022-08-18T04:20:24;18.60;99.90
71155;DHT22;59375;53.216;5.728;2022-08-18T04:22:50;18.60;99.90
71155;DHT22;59375;53.216;5.728;2022-08-18T04:25:15;18.60;99.90
71155;DHT22;59375;53.216;5.728;2022-08-18T04:27:41;18.60;99.90
71155;DHT22;59375;53.216;5.728;2022-08-18T04:30:08;18.60;99.90
71155;DHT22;59375;53.216;5.728;2022-08-18T04:32:35;18.60;99.90
71155;DHT22;59375;53.216;5.728;2022-08-18T04:35:01;18.50;99.90
71155;DHT22;59375;53.216;5.728;2022-08-18T04:37:26;18.50;99.90
71155;DHT22;59375;53.216;5.728;2022-08-18T04:39:52;18.50;99.90
71155;DHT22;59375;53.216;5.728;2022-08-18T04:42:17;18.50;99.90
71155;DHT22;59375;53.216;5.728;2022-08-18T04:44:43;18.50;99.90
71155;DHT22;59375;53.216;5.728;2022-08-18T04:47:09;18.50;99.90
71155;DHT22;59375;53.216;5.728;2022-08-18T04:49:35;18.50;99.90
71155;DHT22;59375;53.216;5.728;2022-08-18T04:52:03;18.50;99.90
71155;DHT22;59375;53.216;5.728;2022-08-18T04:54:49;18.50;99.90
71155;DHT22;59375;53.216;5.728;2022-08-18T04:57:17;18.50;99.90
71155;DHT22;59375;53.216;5.728;2022-08-18T04:59:46;18.50;99.90
71155;DHT22;59375;53.216;5.728;2022-08-18T05:02:12;18.50;99.90
71155;DHT22;59375;53.216;5.728;2022-08-18T05:04:40;18.40;99.90
71155;DHT22;59375;53.216;5.728;2022-08-18T05:07:08;18.50;99.90
71155;DHT22;59375;53.216;5.728;2022-08-18T05:09:35;18.40;99.90
71155;DHT22;59375;53.216;5.728;2022-08-18T05:12:02;18.50;99.90
71155;DHT22;59375;53.216;5.728;2022-08-18T05:14:28;18.40;99.90
71155;DHT22;59375;53.216;5.728;2022-08-18T05:16:57;18.40;99.90
71155;DHT22;59375;53.216;5.728;2022-08-18T05:19:23;18.50;99.90
71155;DHT22;59375;53.216;5.728;2022-08-18T05:21:51;18.50;99.90
71155;DHT22;59375;53.216;5.728;2022-08-18T05:24:19;18.40;99.90
71155;DHT22;59375;53.216;5.728;2022-08-18T05:26:46;18.50;99.90
71155;DHT22;59375;53.216;5.728;2022-08-18T05:29:13;18.50;99.90
71155;DHT22;59375;53.216;5.728;2022-08-18T05:31:39;18.50;99.90
71155;DHT22;59375;53.216;5.728;2022-08-18T05:34:05;18.50;99.90
71155;DHT22;59375;53.216;5.728;2022-08-18T05:36:55;18.40;99.90
71155;DHT22;59375;53.216;5.728;2022-08-18T05:40:07;18.40;99.90
71155;DHT22;59375;53.216;5.728;2022-08-18T05:42:15;18.40;99.90
71155;DHT22;59375;53.216;5.728;2022-08-18T05:44:48;18.30;99.90
71155;DHT22;59375;53.216;5.728;2022-08-18T05:47:28;18.30;99.90
71155;DHT22;59375;53.216;5.728;2022-08-18T05:49:57;18.30;99.90
71155;DHT22;59375;53.216;5.728;2022-08-18T05:52:49;18.20;99.90
71155;DHT22;59375;53.216;5.728;2022-08-18T05:55:24;18.20;99.90
71155;DHT22;59375;53.216;5.728;2022-08-18T06:00:49;18.20;99.90
71155;DHT22;59375;53.216;5.728;2022-08-18T06:04:06;18.30;99.90
71155;DHT22;59375;53.216;5.728;2022-08-18T06:06:16;18.30;99.90
71155;DHT22;59375;53.216;5.728;2022-08-18T06:08:47;18.30;99.90
71155;DHT22;59375;53.216;5.728;2022-08-18T06:11:14;18.20;99.90
71155;DHT22;59375;53.216;5.728;2022-08-18T06:13:41;18.20;99.90
71155;DHT22;59375;53.216;5.728;2022-08-18T06:16:31;18.20;99.90
71155;DHT22;59375;53.216;5.728;2022-08-18T06:27:49;18.20;99.90
71155;DHT22;59375;53.216;5.728;2022-08-18T06:35:51;18.30;99.90
71155;DHT22;59375;53.216;5.728;2022-08-18T06:41:36;18.30;99.90
71155;DHT22;59375;53.216;5.728;2022-08-18T06:44:06;18.40;99.90
71155;DHT22;59375;53.216;5.728;2022-08-18T06:46:40;18.40;99.90
71155;DHT22;59375;53.216;5.728;2022-08-18T06:49:10;18.40;99.90
71155;DHT22;59375;53.216;5.728;2022-08-18T06:51:37;18.40;99.90
71155;DHT22;59375;53.216;5.728;2022-08-18T06:54:23;18.40;99.90
71155;DHT22;59375;53.216;5.728;2022-08-18T06:56:52;18.40;99.90
71155;DHT22;59375;53.216;5.728;2022-08-18T06:59:33;18.50;99.90
71155;DHT22;59375;53.216;5.728;2022-08-18T07:07:40;18.70;99.90
71155;DHT22;59375;53.216;5.728;2022-08-18T07:12:37;18.90;99.90
71155;DHT22;59375;53.216;5.728;2022-08-18T07:15:05;18.90;99.90
71155;DHT22;59375;53.216;5.728;2022-08-18T07:17:34;18.90;99.90
71155;DHT22;59375;53.216;5.728;2022-08-18T07:20:21;19.00;99.90
71155;DHT22;59375;53.216;5.728;2022-08-18T07:22:56;19.10;99.90
71155;DHT22;59375;53.216;5.728;2022-08-18T07:25:30;19.10;99.90
71155;DHT22;59375;53.216;5.728;2022-08-18T07:27:56;19.20;99.90
71155;DHT22;59375;53.216;5.728;2022-08-18T07:30:27;19.20;99.90
71155;DHT22;59375;53.216;5.728;2022-08-18T07:32:58;19.70;99.90
71155;DHT22;59375;53.216;5.728;2022-08-18T07:35:35;20.00;99.90
71155;DHT22;59375;53.216;5.728;2022-08-18T07:38:36;20.20;99.90
71155;DHT22;59375;53.216;5.728;2022-08-18T07:41:32;20.80;99.90
71155;DHT22;59375;53.216;5.728;2022-08-18T07:46:47;21.50;99.90
71155;DHT22;59375;53.216;5.728;2022-08-18T07:49:22;21.80;99.90
71155;DHT22;59375;53.216;5.728;2022-08-18T07:51:58;22.10;99.90
71155;DHT22;59375;53.216;5.728;2022-08-18T07:54:43;22.30;99.90
71155;DHT22;59375;53.216;5.728;2022-08-18T07:59:47;21.80;99.90
71155;DHT22;59375;53.216;5.728;2022-08-18T08:05:09;21.50;99.90
71155;DHT22;59375;53.216;5.728;2022-08-18T08:07:55;21.40;99.90
71155;DHT22;59375;53.216;5.728;2022-08-18T08:10:41;21.70;99.90
71155;DHT22;59375;53.216;5.728;2022-08-18T08:13:58;22.30;99.90
71155;DHT22;59375;53.216;5.728;2022-08-18T08:22:19;23.20;98.50
71155;DHT22;59375;53.216;5.728;2022-08-18T08:30:13;21.80;99.90
71155;DHT22;59375;53.216;5.728;2022-08-18T08:38:05;21.50;99.90
71155;DHT22;59375;53.216;5.728;2022-08-18T08:43:07;21.30;99.90
71155;DHT22;59375;53.216;5.728;2022-08-18T08:45:59;21.20;99.90
71155;DHT22;59375;53.216;5.728;2022-08-18T08:48:30;21.50;99.90
71155;DHT22;59375;53.216;5.728;2022-08-18T08:51:00;21.80;99.90
71155;DHT22;59375;53.216;5.728;2022-08-18T08:53:34;21.80;99.90
71155;DHT22;59375;53.216;5.728;2022-08-18T08:56:06;21.70;99.90
71155;DHT22;59375;53.216;5.728;2022-08-18T08:58:45;21.70;99.90
71155;DHT22;59375;53.216;5.728;2022-08-18T09:07:12;21.30;99.90
71155;DHT22;59375;53.216;5.728;2022-08-18T09:13:04;21.30;99.90
71155;DHT22;59375;53.216;5.728;2022-08-18T09:15:42;21.40;99.90
71155;DHT22;59375;53.216;5.728;2022-08-18T09:29:25;21.30;99.90
71155;DHT22;59375;53.216;5.728;2022-08-18T09:38:13;21.60;99.90
71155;DHT22;59375;53.216;5.728;2022-08-18T09:41:20;21.80;99.90
71155;DHT22;59375;53.216;5.728;2022-08-18T09:44:08;21.60;99.90
71155;DHT22;59375;53.216;5.728;2022-08-18T09:51:54;21.30;99.90
71155;DHT22;59375;53.216;5.728;2022-08-18T09:54:23;21.60;99.90
71155;DHT22;59375;53.216;5.728;2022-08-18T10:02:05;23.10;98.10
71155;DHT22;59375;53.216;5.728;2022-08-18T10:04:42;23.40;97.80
71155;DHT22;59375;53.216;5.728;2022-08-18T10:07:31;23.80;97.90
71155;DHT22;59375;53.216;5.728;2022-08-18T10:13:02;23.60;96.80
71155;DHT22;59375;53.216;5.728;2022-08-18T10:18:34;23.40;97.50
71155;DHT22;59375;53.216;5.728;2022-08-18T10:21:12;23.50;97.10
71155;DHT22;59375;53.216;5.728;2022-08-18T10:28:57;23.30;97.10
71155;DHT22;59375;53.216;5.728;2022-08-18T10:31:25;23.70;97.50
71155;DHT22;59375;53.216;5.728;2022-08-18T10:34:04;24.10;97.10
71155;DHT22;59375;53.216;5.728;2022-08-18T10:42:38;24.60;92.90
71155;DHT22;59375;53.216;5.728;2022-08-18T10:45:13;24.70;94.20
71155;DHT22;59375;53.216;5.728;2022-08-18T10:47:39;24.30;94.60
71155;DHT22;59375;53.216;5.728;2022-08-18T10:50:19;24.10;95.10
71155;DHT22;59375;53.216;5.728;2022-08-18T10:55:35;24.20;93.60
71155;DHT22;59375;53.216;5.728;2022-08-18T10:58:36;23.80;94.70
71155;DHT22;59375;53.216;5.728;2022-08-18T11:04:06;23.30;95.70
71155;DHT22;59375;53.216;5.728;2022-08-18T11:06:42;23.40;96.90
71155;DHT22;59375;53.216;5.728;2022-08-18T11:09:11;23.50;95.90
71155;DHT22;59375;53.216;5.728;2022-08-18T11:11:40;23.20;96.20
71155;DHT22;59375;53.216;5.728;2022-08-18T11:14:34;22.90;96.60
71155;DHT22;59375;53.216;5.728;2022-08-18T11:17:18;22.60;97.00
71155;DHT22;59375;53.216;5.728;2022-08-18T11:19:50;22.30;97.80
71155;DHT22;59375;53.216;5.728;2022-08-18T11:22:26;22.50;97.90
71155;DHT22;59375;53.216;5.728;2022-08-18T11:24:52;23.10;97.00
71155;DHT22;59375;53.216;5.728;2022-08-18T11:27:21;23.80;96.30
71155;DHT22;59375;53.216;5.728;2022-08-18T11:29:46;24.60;95.90
71155;DHT22;59375;53.216;5.728;2022-08-18T11:32:23;24.80;94.50
71155;DHT22;59375;53.216;5.728;2022-08-18T11:37:41;24.20;93.80
71155;DHT22;59375;53.216;5.728;2022-08-18T11:40:30;23.70;94.50
71155;DHT22;59375;53.216;5.728;2022-08-18T11:43:09;23.40;95.30
71155;DHT22;59375;53.216;5.728;2022-08-18T11:45:55;23.30;95.30
71155;DHT22;59375;53.216;5.728;2022-08-18T11:53:22;23.00;96.50
71155;DHT22;59375;53.216;5.728;2022-08-18T11:56:50;23.00;96.40
71155;DHT22;59375;53.216;5.728;2022-08-18T11:58:59;23.20;96.00
71155;DHT22;59375;53.216;5.728;2022-08-18T12:06:33;23.50;94.60
71155;DHT22;59375;53.216;5.728;2022-08-18T12:09:00;23.40;95.40
71155;DHT22;59375;53.216;5.728;2022-08-18T12:11:34;23.30;95.30
71155;DHT22;59375;53.216;5.728;2022-08-18T12:14:05;23.30;95.90
71155;DHT22;59375;53.216;5.728;2022-08-18T12:19:00;22.90;95.30
71155;DHT22;59375;53.216;5.728;2022-08-18T12:21:25;23.00;95.50
71155;DHT22;59375;53.216;5.728;2022-08-18T12:23:51;23.00;96.00
71155;DHT22;59375;53.216;5.728;2022-08-18T12:26:16;23.10;95.70
71155;DHT22;59375;53.216;5.728;2022-08-18T12:28:42;23.60;95.50
71155;DHT22;59375;53.216;5.728;2022-08-18T12:31:08;24.20;95.30
71155;DHT22;59375;53.216;5.728;2022-08-18T12:33:35;24.80;94.20
71155;DHT22;59375;53.216;5.728;2022-08-18T12:36:04;24.90;93.70
71155;DHT22;59375;53.216;5.728;2022-08-18T12:38:33;24.70;93.00
71155;DHT22;59375;53.216;5.728;2022-08-18T12:41:00;24.40;93.10
71155;DHT22;59375;53.216;5.728;2022-08-18T12:43:25;24.30;93.10
71155;DHT22;59375;53.216;5.728;2022-08-18T12:45:51;24.50;93.20
71155;DHT22;59375;53.216;5.728;2022-08-18T12:48:17;24.50;93.00
71155;DHT22;59375;53.216;5.728;2022-08-18T12:50:43;24.40;93.40
71155;DHT22;59375;53.216;5.728;2022-08-18T12:53:10;24.20;92.80
71155;DHT22;59375;53.216;5.728;2022-08-18T12:55:40;24.10;92.90
71155;DHT22;59375;53.216;5.728;2022-08-18T12:58:06;24.00;92.70
71155;DHT22;59375;53.216;5.728;2022-08-18T13:00:32;24.30;93.10
71155;DHT22;59375;53.216;5.728;2022-08-18T13:02:59;24.60;92.70
71155;DHT22;59375;53.216;5.728;2022-08-18T13:05:25;24.70;92.70
71155;DHT22;59375;53.216;5.728;2022-08-18T13:07:51;24.50;92.80
71155;DHT22;59375;53.216;5.728;2022-08-18T13:10:16;24.20;93.30
71155;DHT22;59375;53.216;5.728;2022-08-18T13:12:42;23.80;93.10
71155;DHT22;59375;53.216;5.728;2022-08-18T13:15:07;23.50;93.80
71155;DHT22;59375;53.216;5.728;2022-08-18T13:17:36;23.50;93.80
71155;DHT22;59375;53.216;5.728;2022-08-18T13:20:09;23.50;93.90
71155;DHT22;59375;53.216;5.728;2022-08-18T13:22:36;23.50;93.50
71155;DHT22;59375;53.216;5.728;2022-08-18T13:25:02;23.50;93.80
71155;DHT22;59375;53.216;5.728;2022-08-18T13:27:28;23.40;93.60
71155;DHT22;59375;53.216;5.728;2022-08-18T13:29:54;23.30;94.20
71155;DHT22;59375;53.216;5.728;2022-08-18T13:32:20;23.30;93.90
71155;DHT22;59375;53.216;5.728;2022-08-18T13:34:45;23.10;94.30
71155;DHT22;59375;53.216;5.728;2022-08-18T13:37:11;23.00;94.50
71155;DHT22;59375;53.216;5.728;2022-08-18T13:39:36;22.90;94.40
71155;DHT22;59375;53.216;5.728;2022-08-18T13:42:02;23.00;94.40
71155;DHT22;59375;53.216;5.728;2022-08-18T13:44:28;23.10;94.20
71155;DHT22;59375;53.216;5.728;2022-08-18T13:46:54;23.30;94.30
71155;DHT22;59375;53.216;5.728;2022-08-18T13:49:22;23.60;94.00
71155;DHT22;59375;53.216;5.728;2022-08-18T13:51:50;23.80;93.50
71155;DHT22;59375;53.216;5.728;2022-08-18T13:54:24;24.00;93.00
71155;DHT22;59375;53.216;5.728;2022-08-18T13:56:50;24.20;92.90
71155;DHT22;59375;53.216;5.728;2022-08-18T13:59:18;24.40;93.50
71155;DHT22;59375;53.216;5.728;2022-08-18T14:01:44;24.30;92.80
71155;DHT22;59375;53.216;5.728;2022-08-18T14:04:10;24.30;92.90
71155;DHT22;59375;53.216;5.728;2022-08-18T14:06:37;24.20;92.80
71155;DHT22;59375;53.216;5.728;2022-08-18T14:09:03;23.90;92.20
71155;DHT22;59375;53.216;5.728;2022-08-18T14:11:30;23.80;92.70
71155;DHT22;59375;53.216;5.728;2022-08-18T14:13:56;23.80;92.60
71155;DHT22;59375;53.216;5.728;2022-08-18T14:16:23;23.80;93.00
71155;DHT22;59375;53.216;5.728;2022-08-18T14:18:49;23.80;92.90
71155;DHT22;59375;53.216;5.728;2022-08-18T14:21:35;23.80;93.10
71155;DHT22;59375;53.216;5.728;2022-08-18T14:24:21;23.70;93.10
71155;DHT22;59375;53.216;5.728;2022-08-18T14:27:05;23.70;93.10
71155;DHT22;59375;53.216;5.728;2022-08-18T14:29:31;23.70;93.20
71155;DHT22;59375;53.216;5.728;2022-08-18T14:31:56;23.70;93.50
71155;DHT22;59375;53.216;5.728;2022-08-18T14:34:22;23.70;93.10
71155;DHT22;59375;53.216;5.728;2022-08-18T14:36:47;23.70;93.00
71155;DHT22;59375;53.216;5.728;2022-08-18T14:39:13;23.50;93.40
71155;DHT22;59375;53.216;5.728;2022-08-18T14:41:39;23.50;93.30
71155;DHT22;59375;53.216;5.728;2022-08-18T14:44:04;23.50;93.30
71155;DHT22;59375;53.216;5.728;2022-08-18T14:46:31;23.50;93.10
71155;DHT22;59375;53.216;5.728;2022-08-18T14:48:57;23.50;93.20
71155;DHT22;59375;53.216;5.728;2022-08-18T14:51:24;23.70;93.40
71155;DHT22;59375;53.216;5.728;2022-08-18T14:53:50;23.70;93.70
71155;DHT22;59375;53.216;5.728;2022-08-18T14:56:16;23.80;93.50
71155;DHT22;59375;53.216;5.728;2022-08-18T14:58:41;23.70;93.30
71155;DHT22;59375;53.216;5.728;2022-08-18T15:01:08;23.70;93.90
71155;DHT22;59375;53.216;5.728;2022-08-18T15:03:36;23.60;93.50
71155;DHT22;59375;53.216;5.728;2022-08-18T15:06:04;23.40;93.30
71155;DHT22;59375;53.216;5.728;2022-08-18T15:08:31;23.40;93.50
71155;DHT22;59375;53.216;5.728;2022-08-18T15:10:58;23.40;94.00
71155;DHT22;59375;53.216;5.728;2022-08-18T15:13:24;23.40;94.10
71155;DHT22;59375;53.216;5.728;2022-08-18T15:15:50;23.50;94.10
71155;DHT22;59375;53.216;5.728;2022-08-18T15:18:16;23.50;93.50
71155;DHT22;59375;53.216;5.728;2022-08-18T15:20:43;23.50;93.60
71155;DHT22;59375;53.216;5.728;2022-08-18T15:23:27;23.50;94.00
71155;DHT22;59375;53.216;5.728;2022-08-18T15:26:12;23.40;94.10
71155;DHT22;59375;53.216;5.728;2022-08-18T15:28:41;23.30;94.10
71155;DHT22;59375;53.216;5.728;2022-08-18T15:31:07;23.30;94.00
71155;DHT22;59375;53.216;5.728;2022-08-18T15:33:33;23.20;94.30
71155;DHT22;59375;53.216;5.728;2022-08-18T15:36:00;23.30;94.10
71155;DHT22;59375;53.216;5.728;2022-08-18T15:38:29;23.30;94.20
71155;DHT22;59375;53.216;5.728;2022-08-18T15:40:57;23.40;94.00
71155;DHT22;59375;53.216;5.728;2022-08-18T15:43:25;23.40;94.20
71155;DHT22;59375;53.216;5.728;2022-08-18T15:45:51;23.40;94.30
71155;DHT22;59375;53.216;5.728;2022-08-18T15:48:20;23.40;94.50
71155;DHT22;59375;53.216;5.728;2022-08-18T15:50:47;23.40;94.50
71155;DHT22;59375;53.216;5.728;2022-08-18T15:53:14;23.30;94.10
71155;DHT22;59375;53.216;5.728;2022-08-18T15:55:40;23.30;94.00
71155;DHT22;59375;53.216;5.728;2022-08-18T15:58:08;23.20;93.90
71155;DHT22;59375;53.216;5.728;2022-08-18T16:00:35;23.20;93.90
71155;DHT22;59375;53.216;5.728;2022-08-18T16:03:04;23.20;94.60
71155;DHT22;59375;53.216;5.728;2022-08-18T16:05:33;23.20;94.20
71155;DHT22;59375;53.216;5.728;2022-08-18T16:08:00;23.10;94.70
71155;DHT22;59375;53.216;5.728;2022-08-18T16:10:28;23.10;94.50
71155;DHT22;59375;53.216;5.728;2022-08-18T16:12:56;23.10;94.70
71155;DHT22;59375;53.216;5.728;2022-08-18T16:15:23;23.00;94.30
71155;DHT22;59375;53.216;5.728;2022-08-18T16:17:50;23.10;94.40
71155;DHT22;59375;53.216;5.728;2022-08-18T16:20:16;23.10;94.30
71155;DHT22;59375;53.216;5.728;2022-08-18T16:22:43;23.00;94.70
71155;DHT22;59375;53.216;5.728;2022-08-18T16:25:09;23.00;94.70
71155;DHT22;59375;53.216;5.728;2022-08-18T16:27:35;22.90;95.00
71155;DHT22;59375;53.216;5.728;2022-08-18T16:30:02;22.70;94.80
71155;DHT22;59375;53.216;5.728;2022-08-18T16:32:30;22.70;95.00
71155;DHT22;59375;53.216;5.728;2022-08-18T16:34:56;22.70;95.00
71155;DHT22;59375;53.216;5.728;2022-08-18T16:37:22;22.60;94.80
71155;DHT22;59375;53.216;5.728;2022-08-18T16:39:48;22.50;95.20
71155;DHT22;59375;53.216;5.728;2022-08-18T16:42:13;22.40;95.30
71155;DHT22;59375;53.216;5.728;2022-08-18T16:44:39;22.30;95.40
71155;DHT22;59375;53.216;5.728;2022-08-18T16:47:05;22.30;95.50
71155;DHT22;59375;53.216;5.728;2022-08-18T16:49:31;22.20;95.40
71155;DHT22;59375;53.216;5.728;2022-08-18T16:51:59;22.30;95.40
71155;DHT22;59375;53.216;5.728;2022-08-18T16:54:29;22.20;95.50
71155;DHT22;59375;53.216;5.728;2022-08-18T16:56:55;22.20;95.40
71155;DHT22;59375;53.216;5.728;2022-08-18T16:59:20;22.20;95.30
71155;DHT22;59375;53.216;5.728;2022-08-18T17:02:04;22.30;95.30
71155;DHT22;59375;53.216;5.728;2022-08-18T17:04:48;22.30;95.30
71155;DHT22;59375;53.216;5.728;2022-08-18T17:07:16;22.30;95.30
71155;DHT22;59375;53.216;5.728;2022-08-18T17:09:42;22.30;95.10
71155;DHT22;59375;53.216;5.728;2022-08-18T17:12:08;22.20;95.30
71155;DHT22;59375;53.216;5.728;2022-08-18T17:14:34;22.20;95.20
71155;DHT22;59375;53.216;5.728;2022-08-18T17:17:01;22.10;95.30
71155;DHT22;59375;53.216;5.728;2022-08-18T17:19:30;21.90;95.30
71155;DHT22;59375;53.216;5.728;2022-08-18T17:21:57;21.80;95.40
71155;DHT22;59375;53.216;5.728;2022-08-18T17:24:23;21.70;95.90
71155;DHT22;59375;53.216;5.728;2022-08-18T17:27:23;21.60;96.20
71155;DHT22;59375;53.216;5.728;2022-08-18T17:32:37;21.60;96.30
71155;DHT22;59375;53.216;5.728;2022-08-18T17:37:49;21.30;96.70
71155;DHT22;59375;53.216;5.728;2022-08-18T17:40:25;21.20;97.00
71155;DHT22;59375;53.216;5.728;2022-08-18T17:42:51;21.20;97.10
71155;DHT22;59375;53.216;5.728;2022-08-18T17:45:18;21.20;97.20
71155;DHT22;59375;53.216;5.728;2022-08-18T17:48:10;21.00;97.30
71155;DHT22;59375;53.216;5.728;2022-08-18T17:50:47;21.10;97.80
71155;DHT22;59375;53.216;5.728;2022-08-18T17:53:34;21.10;97.60
71155;DHT22;59375;53.216;5.728;2022-08-18T17:56:35;21.00;97.50
71155;DHT22;59375;53.216;5.728;2022-08-18T18:00:00;20.90;98.10
71155;DHT22;59375;53.216;5.728;2022-08-18T18:02:10;20.90;97.90
71155;DHT22;59375;53.216;5.728;2022-08-18T18:04:39;20.80;98.40
71155;DHT22;59375;53.216;5.728;2022-08-18T18:07:22;20.70;98.20
71155;DHT22;59375;53.216;5.728;2022-08-18T18:10:03;20.70;98.40
71155;DHT22;59375;53.216;5.728;2022-08-18T18:12:31;20.70;98.30
71155;DHT22;59375;53.216;5.728;2022-08-18T18:14:58;20.60;98.20